sensor_id;sensor_type;location;lat;lon;timestamp;pressure;altitude;pressure_sealevel;temperature;humidity
48563;BME280;34981;49.104;11.396;2023-11-19T00:00:09;99456.38;;;3.66;100.00
48563;BME280;34981;49.104;11.396;2023-11-19T00:02:40;99457.22;;;3.67;100.00
48563;BME280;34981;49.104;11.396;2023-11-19T00:05:09;99474.03;;;3.67;100.00
48563;BME280;34981;49.104;11.396;2023-11-19T00:07:39;99486.34;;;3.68;100.00
48563;BME280;34981;49.104;11.396;2023-11-19T00:10:11;99496.00;;;3.69;100.00
48563;BME280;34981;49.104;11.396;2023-11-19T00:12:39;99511.97;;;3.69;100.00
48563;BME280;34981;49.104;11.396;2023-11-19T00:15:07;99538.44;;;3.71;100.00
48563;BME280;34981;49.104;11.396;2023-11-19T00:17:42;99543.78;;;3.71;100.00
48563;BME280;34981;49.104;11.396;2023-11-19T00:20:16;99549.94;;;3.71;100.00
48563;BME280;34981;49.104;11.396;2023-11-19T00:22:44;99572.19;;;3.70;100.00
48563;BME280;34981;49.104;11.396;2023-11-19T00:25:17;99576.53;;;3.71;100.00
48563;BME280;34981;49.104;11.396;2023-11-19T00:27:45;99581.88;;;3.71;100.00
48563;BME280;34981;49.104;11.396;2023-11-19T00:30:12;99583.56;;;3.72;100.00
48563;BME280;34981;49.104;11.396;2023-11-19T00:32:41;99588.72;;;3.74;100.00
48563;BME280;34981;49.104;11.396;2023-11-19T00:35:08;99602.00;;;3.74;100.00
48563;BME280;34981;49.104;11.396;2023-11-19T00:37:37;99616.16;;;3.74;100.00
48563;BME280;34981;49.104;11.396;2023-11-19T00:40:04;99634.78;;;3.74;100.00
48563;BME280;34981;49.104;11.396;2023-11-19T00:42:32;99656.09;;;3.74;100.00
48563;BME280;34981;49.104;11.396;2023-11-19T00:44:59;99674.59;;;3.76;100.00
48563;BME280;34981;49.104;11.396;2023-11-19T00:47:29;99693.09;;;3.77;100.00
48563;BME280;34981;49.104;11.396;2023-11-19T00:49:58;99703.72;;;3.77;100.00
48563;BME280;34981;49.104;11.396;2023-11-19T00:52:25;99682.44;;;3.77;100.00
48563;BME280;34981;49.104;11.396;2023-11-19T00:54:53;99702.88;;;3.77;100.00
48563;BME280;34981;49.104;11.396;2023-11-19T00:57:20;99712.56;;;3.78;100.00
48563;BME280;34981;49.104;11.396;2023-11-19T00:59:47;99726.69;;;3.78;100.00
48563;BME280;34981;49.104;11.396;2023-11-19T01:02:15;99747.84;;;3.80;100.00
48563;BME280;34981;49.104;11.396;2023-11-19T01:04:42;99757.66;;;3.79;100.00
48563;BME280;34981;49.104;11.396;2023-11-19T01:07:11;99762.81;;;3.81;100.00
48563;BME280;34981;49.104;11.396;2023-11-19T01:09:43;99782.19;;;3.83;100.00
48563;BME280;34981;49.104;11.396;2023-11-19T01:12:10;99799.13;;;3.82;100.00
48563;BME280;34981;49.104;11.396;2023-11-19T01:14:37;99814.13;;;3.83;100.00
48563;BME280;34981;49.104;11.396;2023-11-19T01:17:05;99821.25;;;3.82;100.00
48563;BME280;34981;49.104;11.396;2023-11-19T01:19:34;99830.94;;;3.83;100.00
48563;BME280;34981;49.104;11.396;2023-11-19T01:22:01;99857.53;;;3.83;100.00
48563;BME280;34981;49.104;11.396;2023-11-19T01:24:29;99867.22;;;3.84;100.00
48563;BME280;34981;49.104;11.396;2023-11-19T01:26:58;99883.91;;;3.86;100.00
48563;BME280;34981;49.104;11.396;2023-11-19T01:29:27;99904.34;;;3.86;100.00
48563;BME280;34981;49.104;11.396;2023-11-19T01:31:54;99938.00;;;3.87;100.00
48563;BME280;34981;49.104;11.396;2023-11-19T01:34:21;99941.34;;;3.89;100.00
48563;BME280;34981;49.104;11.396;2023-11-19T01:36:48;99965.44;;;3.87;100.00
48563;BME280;34981;49.104;11.396;2023-11-19T01:39:16;99984.78;;;3.89;100.00
48563;BME280;34981;49.104;11.396;2023-11-19T01:41:43;100005.09;;;3.90;100.00
48563;BME280;34981;49.104;11.396;2023-11-19T01:44:11;100014.78;;;3.91;100.00
48563;BME280;34981;49.104;11.396;2023-11-19T01:46:42;100030.75;;;3.91;100.00
48563;BME280;34981;49.104;11.396;2023-11-19T01:49:10;100056.41;;;3.92;100.00
48563;BME280;34981;49.104;11.396;2023-11-19T01:51:39;100065.25;;;3.93;100.00
48563;BME280;34981;49.104;11.396;2023-11-19T01:54:07;100070.69;;;3.91;100.00
48563;BME280;34981;49.104;11.396;2023-11-19T01:56:35;100092.72;;;3.94;100.00
48563;BME280;34981;49.104;11.396;2023-11-19T01:59:02;100103.38;;;3.94;100.00
48563;BME280;34981;49.104;11.396;2023-11-19T02:01:30;100121.84;;;3.95;100.00
48563;BME280;34981;49.104;11.396;2023-11-19T02:03:59;100138.66;;;3.96;100.00
48563;BME280;34981;49.104;11.396;2023-11-19T02:06:28;100151.13;;;3.95;100.00
48563;BME280;34981;49.104;11.396;2023-11-19T02:08:55;100170.75;;;3.94;100.00
48563;BME280;34981;49.104;11.396;2023-11-19T02:11:22;100202.56;;;3.96;100.00
48563;BME280;34981;49.104;11.396;2023-11-19T02:13:50;100235.25;;;3.98;100.00
48563;BME280;34981;49.104;11.396;2023-11-19T02:16:17;100253.88;;;3.98;100.00
48563;BME280;34981;49.104;11.396;2023-11-19T02:18:44;100268.88;;;3.99;100.00
48563;BME280;34981;49.104;11.396;2023-11-19T02:21:11;100299.13;;;3.98;100.00
48563;BME280;34981;49.104;11.396;2023-11-19T02:23:38;100323.94;;;3.98;100.00
48563;BME280;34981;49.104;11.396;2023-11-19T02:28:36;100352.28;;;3.99;100.00
48563;BME280;34981;49.104;11.396;2023-11-19T02:31:04;100362.81;;;4.01;100.00
48563;BME280;34981;49.104;11.396;2023-11-19T02:33:38;100380.50;;;4.02;100.00
48563;BME280;34981;49.104;11.396;2023-11-19T02:36:05;100406.97;;;4.03;100.00
48563;BME280;34981;49.104;11.396;2023-11-19T02:38:34;100432.75;;;4.03;100.00
48563;BME280;34981;49.104;11.396;2023-11-19T02:41:03;100449.56;;;4.03;100.00
48563;BME280;34981;49.104;11.396;2023-11-19T02:43:32;100473.44;;;4.05;100.00
48563;BME280;34981;49.104;11.396;2023-11-19T02:46:01;100500.91;;;4.05;100.00
48563;BME280;34981;49.104;11.396;2023-11-19T02:48:28;100522.09;;;4.07;100.00
48563;BME280;34981;49.104;11.396;2023-11-19T02:50:56;100547.78;;;4.08;100.00
48563;BME280;34981;49.104;11.396;2023-11-19T02:53:25;100582.38;;;4.08;100.00
48563;BME280;34981;49.104;11.396;2023-11-19T02:55:54;100594.00;;;4.07;100.00
48563;BME280;34981;49.104;11.396;2023-11-19T02:58:28;100609.88;;;4.08;100.00
48563;BME280;34981;49.104;11.396;2023-11-19T03:00:56;100627.53;;;4.09;100.00
48563;BME280;34981;49.104;11.396;2023-11-19T03:03:29;100650.66;;;4.09;100.00
48563;BME280;34981;49.104;11.396;2023-11-19T03:06:05;100676.09;;;4.13;100.00
48563;BME280;34981;49.104;11.396;2023-11-19T03:08:34;100697.50;;;4.11;100.00
48563;BME280;34981;49.104;11.396;2023-11-19T03:11:02;100723.19;;;4.12;100.00
48563;BME280;34981;49.104;11.396;2023-11-19T03:13:29;100748.88;;;4.13;100.00
48563;BME280;34981;49.104;11.396;2023-11-19T03:15:56;100780.63;;;4.16;100.00
48563;BME280;34981;49.104;11.396;2023-11-19T03:18:23;100808.06;;;4.17;100.00
48563;BME280;34981;49.104;11.396;2023-11-19T03:20:51;100836.56;;;4.16;100.00
48563;BME280;34981;49.104;11.396;2023-11-19T03:23:19;100863.06;;;4.18;100.00
48563;BME280;34981;49.104;11.396;2023-11-19T03:25:46;100889.69;;;4.18;100.00
48563;BME280;34981;49.104;11.396;2023-11-19T03:28:15;100917.19;;;4.18;100.00
48563;BME280;34981;49.104;11.396;2023-11-19T03:30:42;100950.84;;;4.19;100.00
48563;BME280;34981;49.104;11.396;2023-11-19T03:33:09;100992.41;;;4.22;100.00
48563;BME280;34981;49.104;11.396;2023-11-19T03:35:36;101018.19;;;4.21;100.00
48563;BME280;34981;49.104;11.396;2023-11-19T03:38:03;101041.22;;;4.22;100.00
48563;BME280;34981;49.104;11.396;2023-11-19T03:40:30;101077.44;;;4.25;100.00
48563;BME280;34981;49.104;11.396;2023-11-19T03:42:58;101144.81;;;4.27;100.00
48563;BME280;34981;49.104;11.396;2023-11-19T03:45:25;101200.66;;;4.28;100.00
48563;BME280;34981;49.104;11.396;2023-11-19T03:47:52;101229.88;;;4.30;100.00
48563;BME280;34981;49.104;11.396;2023-11-19T03:50:20;101261.84;;;4.30;100.00
48563;BME280;34981;49.104;11.396;2023-11-19T03:52:48;101274.19;;;4.31;100.00
48563;BME280;34981;49.104;11.396;2023-11-19T03:55:15;101335.47;;;4.31;100.00
48563;BME280;34981;49.104;11.396;2023-11-19T03:57:43;101385.28;;;4.30;100.00
48563;BME280;34981;49.104;11.396;2023-11-19T04:00:10;101404.66;;;4.32;100.00
48563;BME280;34981;49.104;11.396;2023-11-19T04:02:41;101410.84;;;4.33;100.00
48563;BME280;34981;49.104;11.396;2023-11-19T04:05:08;101420.75;;;4.31;100.00
48563;BME280;34981;49.104;11.396;2023-11-19T04:07:36;101447.03;;;4.37;100.00
48563;BME280;34981;49.104;11.396;2023-11-19T04:10:04;101464.72;;;4.38;100.00
48563;BME280;34981;49.104;11.396;2023-11-19T04:12:31;101477.00;;;4.41;100.00
48563;BME280;34981;49.104;11.396;2023-11-19T04:14:59;101481.28;;;4.43;100.00
48563;BME280;34981;49.104;11.396;2023-11-19T04:17:28;101466.16;;;4.44;100.00
48563;BME280;34981;49.104;11.396;2023-11-19T04:19:55;101472.53;;;4.41;100.00
48563;BME280;34981;49.104;11.396;2023-11-19T04:22:23;101503.72;;;4.39;100.00
48563;BME280;34981;49.104;11.396;2023-11-19T04:24:51;101531.94;;;4.43;100.00
48563;BME280;34981;49.104;11.396;2023-11-19T04:27:18;101567.44;;;4.44;100.00
48563;BME280;34981;49.104;11.396;2023-11-19T04:29:45;101587.69;;;4.46;100.00
48563;BME280;34981;49.104;11.396;2023-11-19T04:32:14;101609.00;;;4.46;100.00
48563;BME280;34981;49.104;11.396;2023-11-19T04:34:41;101625.88;;;4.47;100.00
48563;BME280;34981;49.104;11.396;2023-11-19T04:37:09;101664.81;;;4.49;100.00
48563;BME280;34981;49.104;11.396;2023-11-19T04:39:40;101677.19;;;4.50;100.00
48563;BME280;34981;49.104;11.396;2023-11-19T04:42:07;101710.03;;;4.51;100.00
48563;BME280;34981;49.104;11.396;2023-11-19T04:44:34;101771.84;;;4.57;100.00
48563;BME280;34981;49.104;11.396;2023-11-19T04:47:01;101817.97;;;4.59;100.00
48563;BME280;34981;49.104;11.396;2023-11-19T04:49:29;101861.72;;;4.55;100.00
48563;BME280;34981;49.104;11.396;2023-11-19T04:51:57;101944.66;;;4.66;100.00
48563;BME280;34981;49.104;11.396;2023-11-19T04:54:24;102002.38;;;4.67;100.00
48563;BME280;34981;49.104;11.396;2023-11-19T04:56:52;102074.25;;;4.69;100.00
48563;BME280;34981;49.104;11.396;2023-11-19T04:59:19;102133.66;;;4.73;100.00
48563;BME280;34981;49.104;11.396;2023-11-19T05:01:46;102197.19;;;4.82;100.00
48563;BME280;34981;49.104;11.396;2023-11-19T05:04:14;102240.53;;;4.85;100.00
48563;BME280;34981;49.104;11.396;2023-11-19T05:06:42;102301.81;;;4.87;100.00
48563;BME280;34981;49.104;11.396;2023-11-19T05:09:09;102379.66;;;4.95;100.00
48563;BME280;34981;49.104;11.396;2023-11-19T05:11:36;102407.22;;;4.95;100.00
48563;BME280;34981;49.104;11.396;2023-11-19T05:14:17;102463.81;;;5.02;100.00
48563;BME280;34981;49.104;11.396;2023-11-19T05:16:47;102540.81;;;5.09;100.00
48563;BME280;34981;49.104;11.396;2023-11-19T05:19:14;102599.47;;;5.11;100.00
48563;BME280;34981;49.104;11.396;2023-11-19T05:21:42;102682.69;;;5.19;100.00
48563;BME280;34981;49.104;11.396;2023-11-19T05:24:10;102749.28;;;5.22;100.00
48563;BME280;34981;49.104;11.396;2023-11-19T05:26:38;102826.72;;;5.22;100.00
48563;BME280;34981;49.104;11.396;2023-11-19T05:29:06;102905.66;;;5.28;100.00
48563;BME280;34981;49.104;11.396;2023-11-19T05:31:33;102992.78;;;5.30;100.00
48563;BME280;34981;49.104;11.396;2023-11-19T05:34:03;103082.63;;;5.31;100.00
48563;BME280;34981;49.104;11.396;2023-11-19T05:36:31;103122.53;;;5.34;100.00
48563;BME280;34981;49.104;11.396;2023-11-19T05:38:58;103124.22;;;5.37;100.00
48563;BME280;34981;49.104;11.396;2023-11-19T05:41:25;103169.66;;;5.35;100.00
48563;BME280;34981;49.104;11.396;2023-11-19T05:43:53;103220.59;;;5.31;100.00
48563;BME280;34981;49.104;11.396;2023-11-19T05:46:20;103305.03;;;5.33;100.00
48563;BME280;34981;49.104;11.396;2023-11-19T05:48:48;103370.88;;;5.34;100.00
48563;BME280;34981;49.104;11.396;2023-11-19T05:51:15;103437.50;;;5.39;100.00
48563;BME280;34981;49.104;11.396;2023-11-19T05:53:43;103512.09;;;5.43;100.00
48563;BME280;34981;49.104;11.396;2023-11-19T05:56:13;103619.56;;;5.52;100.00
48563;BME280;34981;49.104;11.396;2023-11-19T05:58:40;103734.22;;;5.58;100.00
48563;BME280;34981;49.104;11.396;2023-11-19T06:01:07;103783.13;;;5.61;100.00
48563;BME280;34981;49.104;11.396;2023-11-19T06:03:35;103859.56;;;5.65;100.00
48563;BME280;34981;49.104;11.396;2023-11-19T06:06:04;103905.00;;;5.65;100.00
48563;BME280;34981;49.104;11.396;2023-11-19T06:08:33;103938.91;;;5.63;100.00
48563;BME280;34981;49.104;11.396;2023-11-19T06:11:00;104024.25;;;5.69;100.00
48563;BME280;34981;49.104;11.396;2023-11-19T06:13:28;104083.91;;;5.70;100.00
48563;BME280;34981;49.104;11.396;2023-11-19T06:15:58;104164.94;;;5.70;100.00
48563;BME280;34981;49.104;11.396;2023-11-19T06:18:26;104267.31;;;5.74;100.00
48563;BME280;34981;49.104;11.396;2023-11-19T06:20:53;104383.00;;;5.80;100.00
48563;BME280;34981;49.104;11.396;2023-11-19T06:23:20;104475.53;;;5.86;100.00
48563;BME280;34981;49.104;11.396;2023-11-19T06:25:47;104592.13;;;5.96;100.00
48563;BME280;34981;49.104;11.396;2023-11-19T06:28:14;104609.84;;;6.02;100.00
48563;BME280;34981;49.104;11.396;2023-11-19T06:30:42;104707.00;;;6.02;100.00
48563;BME280;34981;49.104;11.396;2023-11-19T06:33:12;104812.13;;;6.06;100.00
48563;BME280;34981;49.104;11.396;2023-11-19T06:35:40;104895.94;;;6.06;100.00
48563;BME280;34981;49.104;11.396;2023-11-19T06:38:10;104979.66;;;6.13;100.00
48563;BME280;34981;49.104;11.396;2023-11-19T06:40:37;105083.00;;;6.18;100.00
48563;BME280;34981;49.104;11.396;2023-11-19T06:43:04;105161.44;;;6.20;100.00
48563;BME280;34981;49.104;11.396;2023-11-19T06:45:31;105276.44;;;6.23;100.00
48563;BME280;34981;49.104;11.396;2023-11-19T06:48:02;105393.25;;;6.26;100.00
48563;BME280;34981;49.104;11.396;2023-11-19T06:50:31;105510.91;;;6.37;100.00
48563;BME280;34981;49.104;11.396;2023-11-19T06:52:58;105596.56;;;6.40;100.00
48563;BME280;34981;49.104;11.396;2023-11-19T06:55:26;105763.38;;;6.42;100.00
48563;BME280;34981;49.104;11.396;2023-11-19T06:57:53;105892.75;;;6.41;100.00
48563;BME280;34981;49.104;11.396;2023-11-19T07:00:20;106014.97;;;6.40;100.00
48563;BME280;34981;49.104;11.396;2023-11-19T07:02:47;106134.53;;;6.44;100.00
48563;BME280;34981;49.104;11.396;2023-11-19T07:05:15;106181.81;;;6.38;100.00
48563;BME280;34981;49.104;11.396;2023-11-19T07:07:42;106458.41;;;6.38;100.00
48563;BME280;34981;49.104;11.396;2023-11-19T07:10:09;106735.09;;;6.45;100.00
48563;BME280;34981;49.104;11.396;2023-11-19T07:12:37;106902.03;;;6.47;100.00
48563;BME280;34981;49.104;11.396;2023-11-19T07:15:04;107104.63;;;6.46;100.00
48563;BME280;34981;49.104;11.396;2023-11-19T07:17:32;107296.66;;;6.52;100.00
48563;BME280;34981;49.104;11.396;2023-11-19T07:19:59;107419.84;;;6.52;100.00
48563;BME280;34981;49.104;11.396;2023-11-19T07:22:27;107557.25;;;6.49;100.00
48563;BME280;34981;49.104;11.396;2023-11-19T07:24:56;107526.03;;;6.50;100.00
48563;BME280;34981;49.104;11.396;2023-11-19T07:27:24;107644.84;;;6.53;100.00
48563;BME280;34981;49.104;11.396;2023-11-19T07:29:52;107678.81;;;6.54;100.00
48563;BME280;34981;49.104;11.396;2023-11-19T07:32:19;107711.84;;;6.55;100.00
48563;BME280;34981;49.104;11.396;2023-11-19T07:34:46;108052.38;;;6.92;100.00
48563;BME280;34981;49.104;11.396;2023-11-19T07:37:13;108142.16;;;7.05;100.00
48563;BME280;34981;49.104;11.396;2023-11-19T07:39:40;108360.94;;;7.25;100.00
48563;BME280;34981;49.104;11.396;2023-11-19T07:42:08;108460.56;;;7.36;100.00
48563;BME280;34981;49.104;11.396;2023-11-19T07:44:36;108673.09;;;7.51;100.00
48563;BME280;34981;49.104;11.396;2023-11-19T07:47:04;107570.47;;;7.53;100.00
48563;BME280;34981;49.104;11.396;2023-11-19T07:49:31;107801.22;;;7.54;100.00
48563;BME280;34981;49.104;11.396;2023-11-19T07:51:58;108011.50;;;7.58;100.00
48563;BME280;34981;49.104;11.396;2023-11-19T07:54:26;107472.22;;;7.56;100.00
48563;BME280;34981;49.104;11.396;2023-11-19T07:56:53;107382.84;;;7.60;100.00
48563;BME280;34981;49.104;11.396;2023-11-19T07:59:20;107582.56;;;7.73;100.00
48563;BME280;34981;49.104;11.396;2023-11-19T08:01:48;107704.38;;;7.79;100.00
48563;BME280;34981;49.104;11.396;2023-11-19T08:04:15;107985.13;;;7.74;100.00
48563;BME280;34981;49.104;11.396;2023-11-19T08:06:42;108469.00;;;7.96;100.00
48563;BME280;34981;49.104;11.396;2023-11-19T08:09:09;109256.63;;;7.95;100.00
48563;BME280;34981;49.104;11.396;2023-11-19T08:11:41;109505.66;;;7.99;100.00
48563;BME280;34981;49.104;11.396;2023-11-19T08:14:08;109681.69;;;7.92;100.00
48563;BME280;34981;49.104;11.396;2023-11-19T08:16:36;109896.31;;;8.04;100.00
48563;BME280;34981;49.104;11.396;2023-11-19T08:19:04;109983.75;;;7.99;100.00
48563;BME280;34981;49.104;11.396;2023-11-19T08:21:32;110077.97;;;8.02;100.00
48563;BME280;34981;49.104;11.396;2023-11-19T08:23:59;110058.63;;;7.93;100.00
48563;BME280;34981;49.104;11.396;2023-11-19T08:26:26;110214.16;;;8.03;100.00
48563;BME280;34981;49.104;11.396;2023-11-19T08:28:53;110284.06;;;8.04;100.00
48563;BME280;34981;49.104;11.396;2023-11-19T08:31:20;110278.97;;;7.94;100.00
48563;BME280;34981;49.104;11.396;2023-11-19T08:33:47;110426.56;;;8.06;100.00
48563;BME280;34981;49.104;11.396;2023-11-19T08:36:15;110505.00;;;8.13;100.00
48563;BME280;34981;49.104;11.396;2023-11-19T08:38:42;110431.22;;;8.08;100.00
48563;BME280;34981;49.104;11.396;2023-11-19T08:41:10;110489.41;;;8.08;100.00
48563;BME280;34981;49.104;11.396;2023-11-19T08:43:37;110570.28;;;8.26;100.00
48563;BME280;34981;49.104;11.396;2023-11-19T08:46:09;110583.38;;;8.33;100.00
48563;BME280;34981;49.104;11.396;2023-11-19T08:48:36;110535.47;;;8.27;100.00
48563;BME280;34981;49.104;11.396;2023-11-19T08:51:03;110607.88;;;8.37;100.00
48563;BME280;34981;49.104;11.396;2023-11-19T08:53:31;110677.25;;;8.43;100.00
48563;BME280;34981;49.104;11.396;2023-11-19T08:55:58;110682.44;;;8.53;100.00
48563;BME280;34981;49.104;11.396;2023-11-19T08:58:26;110705.47;;;8.49;100.00
48563;BME280;34981;49.104;11.396;2023-11-19T09:00:53;110803.94;;;8.47;100.00
48563;BME280;34981;49.104;11.396;2023-11-19T09:03:20;110945.41;;;8.45;100.00
48563;BME280;34981;49.104;11.396;2023-11-19T09:05:48;111135.13;;;8.42;100.00
48563;BME280;34981;49.104;11.396;2023-11-19T09:08:15;111306.16;;;8.51;100.00
48563;BME280;34981;49.104;11.396;2023-11-19T09:10:42;111313.09;;;8.59;100.00
48563;BME280;34981;49.104;11.396;2023-11-19T09:13:09;111557.84;;;8.59;100.00
48563;BME280;34981;49.104;11.396;2023-11-19T09:15:36;111633.34;;;8.73;100.00
48563;BME280;34981;49.104;11.396;2023-11-19T09:18:03;111640.75;;;8.75;100.00
48563;BME280;34981;49.104;11.396;2023-11-19T09:20:34;111633.28;;;8.83;100.00
48563;BME280;34981;49.104;11.396;2023-11-19T09:23:05;111712.63;;;8.88;100.00
48563;BME280;34981;49.104;11.396;2023-11-19T09:25:33;111927.22;;;9.01;100.00
48563;BME280;34981;49.104;11.396;2023-11-19T09:28:03;111976.38;;;8.88;100.00
48563;BME280;34981;49.104;11.396;2023-11-19T09:30:31;112217.00;;;8.90;100.00
48563;BME280;34981;49.104;11.396;2023-11-19T09:33:01;112219.25;;;8.75;100.00
48563;BME280;34981;49.104;11.396;2023-11-19T09:35:28;112427.97;;;8.82;100.00
48563;BME280;34981;49.104;11.396;2023-11-19T09:37:56;112517.19;;;8.86;100.00
48563;BME280;34981;49.104;11.396;2023-11-19T09:40:23;112601.38;;;8.94;100.00
48563;BME280;34981;49.104;11.396;2023-11-19T09:42:50;112652.31;;;9.01;100.00
48563;BME280;34981;49.104;11.396;2023-11-19T09:45:17;112633.72;;;8.85;100.00
48563;BME280;34981;49.104;11.396;2023-11-19T09:47:47;112797.72;;;9.01;100.00
48563;BME280;34981;49.104;11.396;2023-11-19T09:50:19;112784.75;;;8.97;100.00
48563;BME280;34981;49.104;11.396;2023-11-19T09:52:47;112737.75;;;8.85;100.00
48563;BME280;34981;49.104;11.396;2023-11-19T09:55:15;112850.31;;;8.97;100.00
48563;BME280;34981;49.104;11.396;2023-11-19T09:57:42;112904.75;;;9.12;100.00
48563;BME280;34981;49.104;11.396;2023-11-19T10:00:11;112787.56;;;8.98;100.00
48563;BME280;34981;49.104;11.396;2023-11-19T10:02:40;112866.13;;;9.03;100.00
48563;BME280;34981;49.104;11.396;2023-11-19T10:05:09;112970.94;;;9.19;100.00
48563;BME280;34981;49.104;11.396;2023-11-19T10:07:37;113037.94;;;9.24;100.00
48563;BME280;34981;49.104;11.396;2023-11-19T10:10:04;112932.94;;;9.07;100.00
48563;BME280;34981;49.104;11.396;2023-11-19T10:12:32;112792.03;;;8.98;100.00
48563;BME280;34981;49.104;11.396;2023-11-19T10:14:59;112839.19;;;9.03;100.00
48563;BME280;34981;49.104;11.396;2023-11-19T10:17:32;112750.19;;;9.02;100.00
48563;BME280;34981;49.104;11.396;2023-11-19T10:20:00;112569.00;;;9.03;100.00
48563;BME280;34981;49.104;11.396;2023-11-19T10:22:27;112531.53;;;9.14;100.00
48563;BME280;34981;49.104;11.396;2023-11-19T10:24:55;112469.34;;;9.21;100.00
48563;BME280;34981;49.104;11.396;2023-11-19T10:27:29;112362.06;;;9.26;100.00
48563;BME280;34981;49.104;11.396;2023-11-19T10:30:03;112344.44;;;9.29;100.00
48563;BME280;34981;49.104;11.396;2023-11-19T10:32:35;112533.75;;;9.47;100.00
48563;BME280;34981;49.104;11.396;2023-11-19T10:35:05;112709.59;;;9.55;100.00
48563;BME280;34981;49.104;11.396;2023-11-19T10:37:33;112847.72;;;9.71;100.00
48563;BME280;34981;49.104;11.396;2023-11-19T10:40:03;112830.50;;;9.79;100.00
48563;BME280;34981;49.104;11.396;2023-11-19T10:42:32;112890.78;;;9.80;100.00
48563;BME280;34981;49.104;11.396;2023-11-19T10:44:59;112975.09;;;9.87;100.00
48563;BME280;34981;49.104;11.396;2023-11-19T10:47:26;113033.44;;;9.95;100.00
48563;BME280;34981;49.104;11.396;2023-11-19T10:49:58;112776.34;;;9.76;100.00
48563;BME280;34981;49.104;11.396;2023-11-19T10:52:25;113041.00;;;10.08;100.00
48563;BME280;34981;49.104;11.396;2023-11-19T10:54:54;113054.63;;;10.18;100.00
48563;BME280;34981;49.104;11.396;2023-11-19T10:57:27;112863.63;;;10.05;100.00
48563;BME280;34981;49.104;11.396;2023-11-19T11:00:00;112864.22;;;10.11;100.00
48563;BME280;34981;49.104;11.396;2023-11-19T11:02:28;112812.44;;;10.15;100.00
48563;BME280;34981;49.104;11.396;2023-11-19T11:05:01;112835.50;;;10.31;100.00
48563;BME280;34981;49.104;11.396;2023-11-19T11:07:30;112656.63;;;10.22;100.00
48563;BME280;34981;49.104;11.396;2023-11-19T11:10:07;112575.16;;;10.26;100.00
48563;BME280;34981;49.104;11.396;2023-11-19T11:12:37;112614.16;;;10.39;100.00
48563;BME280;34981;49.104;11.396;2023-11-19T11:15:10;112466.19;;;10.44;100.00
48563;BME280;34981;49.104;11.396;2023-11-19T11:17:39;112165.66;;;10.32;100.00
48563;BME280;34981;49.104;11.396;2023-11-19T11:20:07;112070.09;;;10.40;100.00
48563;BME280;34981;49.104;11.396;2023-11-19T11:22:41;111771.94;;;10.33;100.00
48563;BME280;34981;49.104;11.396;2023-11-19T11:28:26;111224.91;;;10.54;100.00
48563;BME280;34981;49.104;11.396;2023-11-19T11:31:02;110937.16;;;10.54;100.00
48563;BME280;34981;49.104;11.396;2023-11-19T11:36:26;110146.78;;;10.72;100.00
48563;BME280;34981;49.104;11.396;2023-11-19T11:38:53;109704.28;;;10.71;100.00
48563;BME280;34981;49.104;11.396;2023-11-19T11:41:24;109168.19;;;10.65;100.00
48563;BME280;34981;49.104;11.396;2023-11-19T11:43:56;108661.88;;;10.58;100.00
48563;BME280;34981;49.104;11.396;2023-11-19T11:49:01;107870.19;;;10.65;100.00
48563;BME280;34981;49.104;11.396;2023-11-19T11:57:31;106813.34;;;10.83;100.00
48563;BME280;34981;49.104;11.396;2023-11-19T11:59:45;106406.06;;;10.97;100.00
48563;BME280;34981;49.104;11.396;2023-11-19T12:02:14;106054.66;;;10.95;100.00
48563;BME280;34981;49.104;11.396;2023-11-19T12:04:46;105761.63;;;10.97;100.00
48563;BME280;34981;49.104;11.396;2023-11-19T12:09:41;105325.34;;;11.11;100.00
48563;BME280;34981;49.104;11.396;2023-11-19T12:20:01;104260.06;;;10.98;100.00
48563;BME280;34981;49.104;11.396;2023-11-19T12:22:28;104090.69;;;10.89;100.00
48563;BME280;34981;49.104;11.396;2023-11-19T12:24:55;103885.72;;;10.75;100.00
48563;BME280;34981;49.104;11.396;2023-11-19T12:27:23;103774.72;;;10.68;100.00
48563;BME280;34981;49.104;11.396;2023-11-19T12:29:50;103708.97;;;10.72;100.00
48563;BME280;34981;49.104;11.396;2023-11-19T12:32:18;103664.34;;;10.84;100.00
48563;BME280;34981;49.104;11.396;2023-11-19T12:34:48;103607.34;;;10.91;100.00
48563;BME280;34981;49.104;11.396;2023-11-19T12:37:15;103563.13;;;10.96;100.00
48563;BME280;34981;49.104;11.396;2023-11-19T12:39:42;103502.84;;;10.97;100.00
48563;BME280;34981;49.104;11.396;2023-11-19T12:42:10;103499.63;;;11.06;100.00
48563;BME280;34981;49.104;11.396;2023-11-19T12:44:38;103431.88;;;11.12;100.00
48563;BME280;34981;49.104;11.396;2023-11-19T12:47:06;103363.13;;;11.05;100.00
48563;BME280;34981;49.104;11.396;2023-11-19T12:49:34;103241.06;;;10.88;100.00
48563;BME280;34981;49.104;11.396;2023-11-19T12:52:01;103220.03;;;10.95;100.00
48563;BME280;34981;49.104;11.396;2023-11-19T12:54:35;103158.34;;;10.90;100.00
48563;BME280;34981;49.104;11.396;2023-11-19T12:57:03;103095.81;;;10.85;100.00
48563;BME280;34981;49.104;11.396;2023-11-19T12:59:32;103090.97;;;10.90;100.00
48563;BME280;34981;49.104;11.396;2023-11-19T13:01:59;103047.31;;;10.85;100.00
48563;BME280;34981;49.104;11.396;2023-11-19T13:04:30;103031.06;;;10.87;100.00
48563;BME280;34981;49.104;11.396;2023-11-19T13:07:00;103044.13;;;10.93;100.00
48563;BME280;34981;49.104;11.396;2023-11-19T13:09:32;103059.59;;;11.04;100.00
48563;BME280;34981;49.104;11.396;2023-11-19T13:11:59;103049.97;;;11.00;100.00